sensor_id;sensor_type;location;lat;lon;timestamp;temperature;humidity
3940;DHT22;1984;48.312;9.244;2022-08-03T00:02:20;16.50;99.90
3940;DHT22;1984;48.312;9.244;2022-08-03T00:04:46;16.50;99.90
3940;DHT22;1984;48.312;9.244;2022-08-03T00:07:11;16.50;99.90
3940;DHT22;1984;48.312;9.244;2022-08-03T00:09:37;16.40;99.90
3940;DHT22;1984;48.312;9.244;2022-08-03T00:12:02;16.30;99.90
3940;DHT22;1984;48.312;9.244;2022-08-03T00:14:28;16.30;99.90
3940;DHT22;1984;48.312;9.244;2022-08-03T00:16:53;16.30;99.90
3940;DHT22;1984;48.312;9.244;2022-08-03T00:19:19;16.30;99.90
3940;DHT22;1984;48.312;9.244;2022-08-03T00:21:44;16.20;99.90
3940;DHT22;1984;48.312;9.244;2022-08-03T00:24:10;16.20;99.90
3940;DHT22;1984;48.312;9.244;2022-08-03T00:26:36;16.20;99.90
3940;DHT22;1984;48.312;9.244;2022-08-03T00:29:02;16.20;99.90
3940;DHT22;1984;48.312;9.244;2022-08-03T00:31:27;16.20;99.90
3940;DHT22;1984;48.312;9.244;2022-08-03T00:33:53;16.10;99.90
3940;DHT22;1984;48.312;9.244;2022-08-03T00:36:19;16.10;99.90
3940;DHT22;1984;48.312;9.244;2022-08-03T00:38:44;16.10;99.90
3940;DHT22;1984;48.312;9.244;2022-08-03T00:41:09;16.00;99.90
3940;DHT22;1984;48.312;9.244;2022-08-03T00:43:35;16.00;99.90
3940;DHT22;1984;48.312;9.244;2022-08-03T00:46:00;15.90;99.90
3940;DHT22;1984;48.312;9.244;2022-08-03T00:48:26;15.80;99.90
3940;DHT22;1984;48.312;9.244;2022-08-03T00:50:52;15.80;99.90
3940;DHT22;1984;48.312;9.244;2022-08-03T00:53:18;15.80;99.90
3940;DHT22;1984;48.312;9.244;2022-08-03T00:55:43;15.80;99.90
3940;DHT22;1984;48.312;9.244;2022-08-03T00:58:09;15.80;99.90
3940;DHT22;1984;48.312;9.244;2022-08-03T01:00:37;15.80;99.90
3940;DHT22;1984;48.312;9.244;2022-08-03T01:03:07;15.80;99.90
3940;DHT22;1984;48.312;9.244;2022-08-03T01:05:43;15.80;99.90
3940;DHT22;1984;48.312;9.244;2022-08-03T01:08:25;15.80;99.90
3940;DHT22;1984;48.312;9.244;2022-08-03T01:13:24;15.50;99.90
3940;DHT22;1984;48.312;9.244;2022-08-03T01:16:02;15.50;99.90
3940;DHT22;1984;48.312;9.244;2022-08-03T01:18:37;15.60;99.90
3940;DHT22;1984;48.312;9.244;2022-08-03T01:21:09;15.50;99.90
3940;DHT22;1984;48.312;9.244;2022-08-03T01:26:54;15.50;99.90
3940;DHT22;1984;48.312;9.244;2022-08-03T01:32:45;15.40;99.90
3940;DHT22;1984;48.312;9.244;2022-08-03T01:35:15;15.40;99.90
3940;DHT22;1984;48.312;9.244;2022-08-03T01:37:49;15.40;99.90
3940;DHT22;1984;48.312;9.244;2022-08-03T01:40:16;15.40;99.90
3940;DHT22;1984;48.312;9.244;2022-08-03T01:42:44;15.40;99.90
3940;DHT22;1984;48.312;9.244;2022-08-03T01:45:12;15.40;99.90
3940;DHT22;1984;48.312;9.244;2022-08-03T01:47:39;15.40;99.90
3940;DHT22;1984;48.312;9.244;2022-08-03T01:50:06;15.40;99.90
3940;DHT22;1984;48.312;9.244;2022-08-03T01:52:33;15.40;99.90
3940;DHT22;1984;48.312;9.244;2022-08-03T01:55:01;15.40;99.90
3940;DHT22;1984;48.312;9.244;2022-08-03T01:57:28;15.30;99.90
3940;DHT22;1984;48.312;9.244;2022-08-03T01:59:55;15.20;99.90
3940;DHT22;1984;48.312;9.244;2022-08-03T02:02:21;15.20;99.90
3940;DHT22;1984;48.312;9.244;2022-08-03T02:04:49;15.10;99.90
3940;DHT22;1984;48.312;9.244;2022-08-03T02:07:17;15.10;99.90
3940;DHT22;1984;48.312;9.244;2022-08-03T02:09:45;15.10;99.90
3940;DHT22;1984;48.312;9.244;2022-08-03T02:12:14;15.10;99.90
3940;DHT22;1984;48.312;9.244;2022-08-03T02:14:42;15.10;99.90
3940;DHT22;1984;48.312;9.244;2022-08-03T02:17:08;15.10;99.90
3940;DHT22;1984;48.312;9.244;2022-08-03T02:19:36;15.10;99.90
3940;DHT22;1984;48.312;9.244;2022-08-03T02:22:04;15.00;99.90
3940;DHT22;1984;48.312;9.244;2022-08-03T02:24:30;15.00;99.90
3940;DHT22;1984;48.312;9.244;2022-08-03T02:26:57;15.00;99.90
3940;DHT22;1984;48.312;9.244;2022-08-03T02:29:26;15.00;99.90
3940;DHT22;1984;48.312;9.244;2022-08-03T02:31:53;15.00;99.90
3940;DHT22;1984;48.312;9.244;2022-08-03T02:34:22;14.90;99.90
3940;DHT22;1984;48.312;9.244;2022-08-03T02:36:52;15.00;99.90
3940;DHT22;1984;48.312;9.244;2022-08-03T02:39:19;14.90;99.90
3940;DHT22;1984;48.312;9.244;2022-08-03T02:41:51;14.90;99.90
3940;DHT22;1984;48.312;9.244;2022-08-03T02:44:20;14.80;99.90
3940;DHT22;1984;48.312;9.244;2022-08-03T02:46:48;14.80;99.90
3940;DHT22;1984;48.312;9.244;2022-08-03T02:49:18;14.80;99.90
3940;DHT22;1984;48.312;9.244;2022-08-03T02:51:44;14.80;99.90
3940;DHT22;1984;48.312;9.244;2022-08-03T02:54:15;14.80;99.90
3940;DHT22;1984;48.312;9.244;2022-08-03T02:56:42;14.80;99.90
3940;DHT22;1984;48.312;9.244;2022-08-03T02:59:09;14.80;99.90
3940;DHT22;1984;48.312;9.244;2022-08-03T03:01:35;14.70;99.90
3940;DHT22;1984;48.312;9.244;2022-08-03T03:04:01;14.70;99.90
3940;DHT22;1984;48.312;9.244;2022-08-03T03:06:28;14.70;99.90
3940;DHT22;1984;48.312;9.244;2022-08-03T03:08:55;14.70;99.90
3940;DHT22;1984;48.312;9.244;2022-08-03T03:11:21;14.70;99.90
3940;DHT22;1984;48.312;9.244;2022-08-03T03:13:48;14.70;99.90
3940;DHT22;1984;48.312;9.244;2022-08-03T03:16:14;14.70;99.90
3940;DHT22;1984;48.312;9.244;2022-08-03T03:18:41;14.70;99.90
3940;DHT22;1984;48.312;9.244;2022-08-03T03:21:08;14.70;99.90
3940;DHT22;1984;48.312;9.244;2022-08-03T03:23:36;14.60;99.90
3940;DHT22;1984;48.312;9.244;2022-08-03T03:26:03;14.60;99.90
3940;DHT22;1984;48.312;9.244;2022-08-03T03:28:30;14.50;99.90
3940;DHT22;1984;48.312;9.244;2022-08-03T03:30:57;14.50;99.90
3940;DHT22;1984;48.312;9.244;2022-08-03T03:33:23;14.50;99.90
3940;DHT22;1984;48.312;9.244;2022-08-03T03:35:49;14.50;99.90
3940;DHT22;1984;48.312;9.244;2022-08-03T03:38:16;14.40;99.90
3940;DHT22;1984;48.312;9.244;2022-08-03T03:40:41;14.40;99.90
3940;DHT22;1984;48.312;9.244;2022-08-03T03:43:09;14.40;99.90
3940;DHT22;1984;48.312;9.244;2022-08-03T03:45:35;14.40;99.90
3940;DHT22;1984;48.312;9.244;2022-08-03T03:48:01;14.40;99.90
3940;DHT22;1984;48.312;9.244;2022-08-03T03:50:29;14.50;99.90
3940;DHT22;1984;48.312;9.244;2022-08-03T03:52:55;14.50;99.90
3940;DHT22;1984;48.312;9.244;2022-08-03T03:55:21;14.40;99.90
3940;DHT22;1984;48.312;9.244;2022-08-03T03:57:46;14.40;99.90
3940;DHT22;1984;48.312;9.244;2022-08-03T04:00:14;14.40;99.90
3940;DHT22;1984;48.312;9.244;2022-08-03T04:02:40;14.30;99.90
3940;DHT22;1984;48.312;9.244;2022-08-03T04:05:06;14.20;99.90
3940;DHT22;1984;48.312;9.244;2022-08-03T04:08:03;14.20;99.90
3940;DHT22;1984;48.312;9.244;2022-08-03T04:13:49;14.20;99.90
3940;DHT22;1984;48.312;9.244;2022-08-03T04:16:18;14.20;99.90
3940;DHT22;1984;48.312;9.244;2022-08-03T04:18:48;14.20;99.90
3940;DHT22;1984;48.312;9.244;2022-08-03T04:21:18;14.20;99.90
3940;DHT22;1984;48.312;9.244;2022-08-03T04:23:47;14.20;99.90
3940;DHT22;1984;48.312;9.244;2022-08-03T04:26:17;14.20;99.90
3940;DHT22;1984;48.312;9.244;2022-08-03T04:28:44;14.20;99.90
3940;DHT22;1984;48.312;9.244;2022-08-03T04:31:12;14.20;99.90
3940;DHT22;1984;48.312;9.244;2022-08-03T04:33:40;14.30;99.90
3940;DHT22;1984;48.312;9.244;2022-08-03T04:36:10;14.40;99.90
3940;DHT22;1984;48.312;9.244;2022-08-03T04:38:40;14.40;99.90
3940;DHT22;1984;48.312;9.244;2022-08-03T04:41:07;14.40;99.90
3940;DHT22;1984;48.312;9.244;2022-08-03T04:43:34;14.40;99.90
3940;DHT22;1984;48.312;9.244;2022-08-03T04:46:01;14.40;99.90
3940;DHT22;1984;48.312;9.244;2022-08-03T04:48:27;14.30;99.90
3940;DHT22;1984;48.312;9.244;2022-08-03T04:50:53;14.30;99.90
3940;DHT22;1984;48.312;9.244;2022-08-03T04:53:19;14.30;99.90
3940;DHT22;1984;48.312;9.244;2022-08-03T04:55:45;14.30;99.90
3940;DHT22;1984;48.312;9.244;2022-08-03T04:58:11;14.30;99.90
3940;DHT22;1984;48.312;9.244;2022-08-03T05:00:37;14.40;99.90
3940;DHT22;1984;48.312;9.244;2022-08-03T05:03:02;14.40;99.90
3940;DHT22;1984;48.312;9.244;2022-08-03T05:05:28;14.50;99.90
3940;DHT22;1984;48.312;9.244;2022-08-03T05:07:53;14.60;99.90
3940;DHT22;1984;48.312;9.244;2022-08-03T05:10:20;14.70;99.90
3940;DHT22;1984;48.312;9.244;2022-08-03T05:12:46;14.70;99.90
3940;DHT22;1984;48.312;9.244;2022-08-03T05:15:12;14.70;99.90
3940;DHT22;1984;48.312;9.244;2022-08-03T05:17:38;14.80;99.90
3940;DHT22;1984;48.312;9.244;2022-08-03T05:20:04;14.90;99.90
3940;DHT22;1984;48.312;9.244;2022-08-03T05:22:30;15.00;99.90
3940;DHT22;1984;48.312;9.244;2022-08-03T05:24:55;15.10;99.90
3940;DHT22;1984;48.312;9.244;2022-08-03T05:27:21;15.20;99.90
3940;DHT22;1984;48.312;9.244;2022-08-03T05:29:50;15.30;99.90
3940;DHT22;1984;48.312;9.244;2022-08-03T05:32:16;15.30;99.90
3940;DHT22;1984;48.312;9.244;2022-08-03T05:34:42;15.30;99.90
3940;DHT22;1984;48.312;9.244;2022-08-03T05:37:08;15.40;99.90
3940;DHT22;1984;48.312;9.244;2022-08-03T05:39:34;15.50;99.90
3940;DHT22;1984;48.312;9.244;2022-08-03T05:41:59;15.50;99.90
3940;DHT22;1984;48.312;9.244;2022-08-03T05:44:25;15.60;99.90
3940;DHT22;1984;48.312;9.244;2022-08-03T05:46:51;15.70;99.90
3940;DHT22;1984;48.312;9.244;2022-08-03T05:49:18;15.80;99.90
3940;DHT22;1984;48.312;9.244;2022-08-03T05:51:44;15.90;99.90
3940;DHT22;1984;48.312;9.244;2022-08-03T05:54:09;16.00;99.90
3940;DHT22;1984;48.312;9.244;2022-08-03T05:56:35;16.10;99.90
3940;DHT22;1984;48.312;9.244;2022-08-03T05:59:00;16.20;99.90
3940;DHT22;1984;48.312;9.244;2022-08-03T06:01:26;16.20;99.90
3940;DHT22;1984;48.312;9.244;2022-08-03T06:03:51;16.30;99.90
3940;DHT22;1984;48.312;9.244;2022-08-03T06:06:17;16.50;99.90
3940;DHT22;1984;48.312;9.244;2022-08-03T06:08:44;16.60;99.90
3940;DHT22;1984;48.312;9.244;2022-08-03T06:11:11;16.70;99.90
3940;DHT22;1984;48.312;9.244;2022-08-03T06:13:37;16.90;99.90
3940;DHT22;1984;48.312;9.244;2022-08-03T06:16:03;17.00;99.90
3940;DHT22;1984;48.312;9.244;2022-08-03T06:18:29;17.20;99.90
3940;DHT22;1984;48.312;9.244;2022-08-03T06:20:55;17.40;99.90
3940;DHT22;1984;48.312;9.244;2022-08-03T06:23:21;17.60;99.90
3940;DHT22;1984;48.312;9.244;2022-08-03T06:25:46;17.80;99.90
3940;DHT22;1984;48.312;9.244;2022-08-03T06:28:12;18.00;99.90
3940;DHT22;1984;48.312;9.244;2022-08-03T06:30:43;18.30;99.90
3940;DHT22;1984;48.312;9.244;2022-08-03T06:33:09;18.60;99.90
3940;DHT22;1984;48.312;9.244;2022-08-03T06:35:34;18.80;99.90
3940;DHT22;1984;48.312;9.244;2022-08-03T06:38:00;19.00;99.90
3940;DHT22;1984;48.312;9.244;2022-08-03T06:40:27;19.30;99.90
3940;DHT22;1984;48.312;9.244;2022-08-03T06:42:57;19.60;99.90
3940;DHT22;1984;48.312;9.244;2022-08-03T06:45:22;19.90;99.90
3940;DHT22;1984;48.312;9.244;2022-08-03T06:47:59;20.30;99.90
3940;DHT22;1984;48.312;9.244;2022-08-03T06:50:25;20.70;99.90
3940;DHT22;1984;48.312;9.244;2022-08-03T06:52:50;21.10;99.90
3940;DHT22;1984;48.312;9.244;2022-08-03T06:55:16;21.60;99.90
3940;DHT22;1984;48.312;9.244;2022-08-03T06:57:42;22.20;99.90
3940;DHT22;1984;48.312;9.244;2022-08-03T07:00:08;22.80;99.90
3940;DHT22;1984;48.312;9.244;2022-08-03T07:02:34;23.40;99.90
3940;DHT22;1984;48.312;9.244;2022-08-03T07:04:59;24.00;99.90
3940;DHT22;1984;48.312;9.244;2022-08-03T07:07:25;24.70;99.90
3940;DHT22;1984;48.312;9.244;2022-08-03T07:09:50;25.40;99.90
3940;DHT22;1984;48.312;9.244;2022-08-03T07:12:16;25.80;99.90
3940;DHT22;1984;48.312;9.244;2022-08-03T07:14:41;26.40;99.90
3940;DHT22;1984;48.312;9.244;2022-08-03T07:17:07;27.10;99.90
3940;DHT22;1984;48.312;9.244;2022-08-03T07:19:32;27.70;99.90
3940;DHT22;1984;48.312;9.244;2022-08-03T07:21:58;28.00;99.40
3940;DHT22;1984;48.312;9.244;2022-08-03T07:24:23;28.20;97.40
3940;DHT22;1984;48.312;9.244;2022-08-03T07:26:49;28.60;96.20
3940;DHT22;1984;48.312;9.244;2022-08-03T07:29:14;29.00;94.30
3940;DHT22;1984;48.312;9.244;2022-08-03T07:31:40;29.10;93.60
3940;DHT22;1984;48.312;9.244;2022-08-03T07:34:06;28.90;92.90
3940;DHT22;1984;48.312;9.244;2022-08-03T07:36:32;28.70;92.80
3940;DHT22;1984;48.312;9.244;2022-08-03T07:38:57;29.00;92.80
3940;DHT22;1984;48.312;9.244;2022-08-03T07:41:23;29.40;91.80
3940;DHT22;1984;48.312;9.244;2022-08-03T07:43:48;29.60;90.80
3940;DHT22;1984;48.312;9.244;2022-08-03T07:46:14;29.70;91.00
3940;DHT22;1984;48.312;9.244;2022-08-03T07:48:40;30.30;90.10
3940;DHT22;1984;48.312;9.244;2022-08-03T07:51:05;30.60;89.90
3940;DHT22;1984;48.312;9.244;2022-08-03T07:53:31;31.10;86.70
3940;DHT22;1984;48.312;9.244;2022-08-03T07:55:56;31.90;85.80
3940;DHT22;1984;48.312;9.244;2022-08-03T07:58:22;32.30;81.10
3940;DHT22;1984;48.312;9.244;2022-08-03T08:00:48;32.70;80.90
3940;DHT22;1984;48.312;9.244;2022-08-03T08:03:17;33.00;79.80
3940;DHT22;1984;48.312;9.244;2022-08-03T08:05:43;33.70;77.30
3940;DHT22;1984;48.312;9.244;2022-08-03T08:08:09;34.30;74.40
3940;DHT22;1984;48.312;9.244;2022-08-03T08:10:35;34.70;72.20
3940;DHT22;1984;48.312;9.244;2022-08-03T08:13:00;35.20;71.60
3940;DHT22;1984;48.312;9.244;2022-08-03T08:15:26;35.50;70.30
3940;DHT22;1984;48.312;9.244;2022-08-03T08:17:54;35.70;66.80
3940;DHT22;1984;48.312;9.244;2022-08-03T08:20:22;35.40;66.00
3940;DHT22;1984;48.312;9.244;2022-08-03T08:22:48;34.40;67.40
3940;DHT22;1984;48.312;9.244;2022-08-03T08:25:14;34.00;68.80
3940;DHT22;1984;48.312;9.244;2022-08-03T08:27:44;33.90;66.30
3940;DHT22;1984;48.312;9.244;2022-08-03T08:30:11;33.90;68.10
3940;DHT22;1984;48.312;9.244;2022-08-03T08:32:37;34.40;66.40
3940;DHT22;1984;48.312;9.244;2022-08-03T08:35:04;34.80;65.60
3940;DHT22;1984;48.312;9.244;2022-08-03T08:37:30;35.00;64.20
3940;DHT22;1984;48.312;9.244;2022-08-03T08:39:56;35.30;61.20
3940;DHT22;1984;48.312;9.244;2022-08-03T08:42:21;35.90;61.80
3940;DHT22;1984;48.312;9.244;2022-08-03T08:44:47;36.80;61.60
3940;DHT22;1984;48.312;9.244;2022-08-03T08:47:13;37.20;59.50
3940;DHT22;1984;48.312;9.244;2022-08-03T08:49:40;37.10;57.70
3940;DHT22;1984;48.312;9.244;2022-08-03T08:52:09;37.60;58.70
3940;DHT22;1984;48.312;9.244;2022-08-03T08:54:38;37.60;57.80
3940;DHT22;1984;48.312;9.244;2022-08-03T08:57:06;37.80;57.50
3940;DHT22;1984;48.312;9.244;2022-08-03T08:59:32;37.00;58.20
3940;DHT22;1984;48.312;9.244;2022-08-03T09:02:01;36.40;58.30
3940;DHT22;1984;48.312;9.244;2022-08-03T09:04:29;36.20;58.10
3940;DHT22;1984;48.312;9.244;2022-08-03T09:06:55;36.30;57.70
3940;DHT22;1984;48.312;9.244;2022-08-03T09:09:21;36.50;58.50
3940;DHT22;1984;48.312;9.244;2022-08-03T09:11:47;37.10;57.60
3940;DHT22;1984;48.312;9.244;2022-08-03T09:14:13;38.10;57.20
3940;DHT22;1984;48.312;9.244;2022-08-03T09:16:54;38.20;55.80
3940;DHT22;1984;48.312;9.244;2022-08-03T09:19:21;37.90;56.10
3940;DHT22;1984;48.312;9.244;2022-08-03T09:21:53;37.60;56.20
3940;DHT22;1984;48.312;9.244;2022-08-03T09:24:32;37.70;56.80
3940;DHT22;1984;48.312;9.244;2022-08-03T09:26:57;37.80;57.10
3940;DHT22;1984;48.312;9.244;2022-08-03T09:29:24;38.60;55.20
3940;DHT22;1984;48.312;9.244;2022-08-03T09:32:00;38.60;54.20
3940;DHT22;1984;48.312;9.244;2022-08-03T09:34:26;39.00;55.80
3940;DHT22;1984;48.312;9.244;2022-08-03T09:36:53;39.20;53.40
3940;DHT22;1984;48.312;9.244;2022-08-03T09:39:20;38.50;54.70
3940;DHT22;1984;48.312;9.244;2022-08-03T09:42:03;39.00;54.80
3940;DHT22;1984;48.312;9.244;2022-08-03T09:44:36;39.20;53.70
3940;DHT22;1984;48.312;9.244;2022-08-03T09:47:03;40.00;53.30
3940;DHT22;1984;48.312;9.244;2022-08-03T09:49:29;40.50;51.80
3940;DHT22;1984;48.312;9.244;2022-08-03T09:51:54;40.50;51.50
3940;DHT22;1984;48.312;9.244;2022-08-03T09:54:27;40.80;52.90
3940;DHT22;1984;48.312;9.244;2022-08-03T09:56:53;41.20;50.60
3940;DHT22;1984;48.312;9.244;2022-08-03T09:59:27;40.60;49.80
3940;DHT22;1984;48.312;9.244;2022-08-03T10:01:56;39.70;50.90
3940;DHT22;1984;48.312;9.244;2022-08-03T10:04:22;39.90;52.10
3940;DHT22;1984;48.312;9.244;2022-08-03T10:07:03;40.00;50.20
3940;DHT22;1984;48.312;9.244;2022-08-03T10:09:29;39.90;50.20
3940;DHT22;1984;48.312;9.244;2022-08-03T10:11:55;39.70;51.70
3940;DHT22;1984;48.312;9.244;2022-08-03T10:14:21;40.00;50.80
3940;DHT22;1984;48.312;9.244;2022-08-03T10:16:48;39.90;49.80
3940;DHT22;1984;48.312;9.244;2022-08-03T10:19:14;40.30;49.50
3940;DHT22;1984;48.312;9.244;2022-08-03T10:21:54;40.70;49.40
3940;DHT22;1984;48.312;9.244;2022-08-03T10:24:24;41.10;48.10
3940;DHT22;1984;48.312;9.244;2022-08-03T10:26:52;41.70;49.90
3940;DHT22;1984;48.312;9.244;2022-08-03T10:29:21;41.80;49.30
3940;DHT22;1984;48.312;9.244;2022-08-03T10:31:52;41.50;48.70
3940;DHT22;1984;48.312;9.244;2022-08-03T10:34:22;40.90;50.20
3940;DHT22;1984;48.312;9.244;2022-08-03T10:36:48;40.40;48.30
3940;DHT22;1984;48.312;9.244;2022-08-03T10:39:18;39.70;49.00
3940;DHT22;1984;48.312;9.244;2022-08-03T10:41:47;39.80;50.20
3940;DHT22;1984;48.312;9.244;2022-08-03T10:44:17;40.40;50.00
3940;DHT22;1984;48.312;9.244;2022-08-03T10:46:44;41.00;50.60
3940;DHT22;1984;48.312;9.244;2022-08-03T10:49:15;40.70;49.40
3940;DHT22;1984;48.312;9.244;2022-08-03T10:51:43;39.70;48.30
3940;DHT22;1984;48.312;9.244;2022-08-03T10:54:38;38.20;49.90
3940;DHT22;1984;48.312;9.244;2022-08-03T11:00:11;36.60;52.20
3940;DHT22;1984;48.312;9.244;2022-08-03T11:03:08;37.00;54.30
3940;DHT22;1984;48.312;9.244;2022-08-03T11:05:41;37.90;53.50
3940;DHT22;1984;48.312;9.244;2022-08-03T11:11:36;37.60;51.30
3940;DHT22;1984;48.312;9.244;2022-08-03T11:14:02;37.00;51.90
3940;DHT22;1984;48.312;9.244;2022-08-03T11:16:34;36.80;52.50
3940;DHT22;1984;48.312;9.244;2022-08-03T11:19:01;36.70;52.40
3940;DHT22;1984;48.312;9.244;2022-08-03T11:38:10;32.70;57.80
3940;DHT22;1984;48.312;9.244;2022-08-03T11:40:49;32.10;57.80
3940;DHT22;1984;48.312;9.244;2022-08-03T11:46:02;32.00;59.50
3940;DHT22;1984;48.312;9.244;2022-08-03T11:51:05;32.50;58.30
3940;DHT22;1984;48.312;9.244;2022-08-03T11:53:31;32.20;58.40
3940;DHT22;1984;48.312;9.244;2022-08-03T11:56:00;32.20;58.50
3940;DHT22;1984;48.312;9.244;2022-08-03T11:58:27;32.10;61.50
3940;DHT22;1984;48.312;9.244;2022-08-03T12:01:05;32.10;58.80
3940;DHT22;1984;48.312;9.244;2022-08-03T12:03:33;32.10;59.40
3940;DHT22;1984;48.312;9.244;2022-08-03T12:05:59;31.60;60.60
3940;DHT22;1984;48.312;9.244;2022-08-03T12:10:53;31.20;61.10
3940;DHT22;1984;48.312;9.244;2022-08-03T12:13:20;31.20;61.30
3940;DHT22;1984;48.312;9.244;2022-08-03T12:15:51;31.20;61.50
3940;DHT22;1984;48.312;9.244;2022-08-03T12:18:18;31.10;59.90
3940;DHT22;1984;48.312;9.244;2022-08-03T12:20:45;31.10;63.70
3940;DHT22;1984;48.312;9.244;2022-08-03T12:23:11;31.30;65.60
3940;DHT22;1984;48.312;9.244;2022-08-03T12:25:38;31.30;60.90
3940;DHT22;1984;48.312;9.244;2022-08-03T12:28:08;31.40;60.70
3940;DHT22;1984;48.312;9.244;2022-08-03T12:30:34;31.30;61.60
3940;DHT22;1984;48.312;9.244;2022-08-03T12:33:18;31.20;61.00
3940;DHT22;1984;48.312;9.244;2022-08-03T12:35:49;31.10;61.50
3940;DHT22;1984;48.312;9.244;2022-08-03T12:38:19;31.10;61.70
3940;DHT22;1984;48.312;9.244;2022-08-03T12:40:55;31.00;62.10
3940;DHT22;1984;48.312;9.244;2022-08-03T12:43:21;30.90;62.50
3940;DHT22;1984;48.312;9.244;2022-08-03T12:45:46;30.70;61.80
3940;DHT22;1984;48.312;9.244;2022-08-03T12:48:12;30.70;62.20
3940;DHT22;1984;48.312;9.244;2022-08-03T12:50:38;30.60;62.30
3940;DHT22;1984;48.312;9.244;2022-08-03T12:53:07;30.50;62.30
3940;DHT22;1984;48.312;9.244;2022-08-03T12:55:34;30.50;64.40
3940;DHT22;1984;48.312;9.244;2022-08-03T12:58:03;30.60;61.10
3940;DHT22;1984;48.312;9.244;2022-08-03T13:00:29;30.60;61.80
3940;DHT22;1984;48.312;9.244;2022-08-03T13:03:02;30.60;62.00
3940;DHT22;1984;48.312;9.244;2022-08-03T13:05:29;30.60;62.60
3940;DHT22;1984;48.312;9.244;2022-08-03T13:07:54;30.80;62.80
3940;DHT22;1984;48.312;9.244;2022-08-03T13:10:31;30.70;61.70
3940;DHT22;1984;48.312;9.244;2022-08-03T13:12:58;30.60;63.50
3940;DHT22;1984;48.312;9.244;2022-08-03T13:15:25;30.50;62.70
3940;DHT22;1984;48.312;9.244;2022-08-03T13:17:53;30.60;62.10
3940;DHT22;1984;48.312;9.244;2022-08-03T13:20:19;30.50;61.90
3940;DHT22;1984;48.312;9.244;2022-08-03T13:22:48;30.50;62.10
3940;DHT22;1984;48.312;9.244;2022-08-03T13:25:14;30.50;61.20
3940;DHT22;1984;48.312;9.244;2022-08-03T13:27:39;30.60;63.40
3940;DHT22;1984;48.312;9.244;2022-08-03T13:30:06;30.60;60.80
3940;DHT22;1984;48.312;9.244;2022-08-03T13:32:32;30.80;62.10
3940;DHT22;1984;48.312;9.244;2022-08-03T13:34:58;30.90;60.30
3940;DHT22;1984;48.312;9.244;2022-08-03T13:37:25;31.10;60.50
3940;DHT22;1984;48.312;9.244;2022-08-03T13:39:50;31.00;59.90
3940;DHT22;1984;48.312;9.244;2022-08-03T13:42:16;31.00;62.40
3940;DHT22;1984;48.312;9.244;2022-08-03T13:44:41;31.10;63.60
3940;DHT22;1984;48.312;9.244;2022-08-03T13:47:07;31.10;60.80
3940;DHT22;1984;48.312;9.244;2022-08-03T13:49:32;31.10;62.80
3940;DHT22;1984;48.312;9.244;2022-08-03T13:51:58;31.20;59.70
3940;DHT22;1984;48.312;9.244;2022-08-03T13:54:24;31.20;59.30
3940;DHT22;1984;48.312;9.244;2022-08-03T13:56:50;31.20;59.80
3940;DHT22;1984;48.312;9.244;2022-08-03T13:59:20;31.10;60.30
3940;DHT22;1984;48.312;9.244;2022-08-03T14:01:47;31.00;59.10
3940;DHT22;1984;48.312;9.244;2022-08-03T14:04:13;30.80;59.80
3940;DHT22;1984;48.312;9.244;2022-08-03T14:06:38;30.60;60.40
3940;DHT22;1984;48.312;9.244;2022-08-03T14:09:04;30.60;60.70
3940;DHT22;1984;48.312;9.244;2022-08-03T14:11:29;30.50;60.00
3940;DHT22;1984;48.312;9.244;2022-08-03T14:13:55;30.50;60.50
3940;DHT22;1984;48.312;9.244;2022-08-03T14:16:21;30.60;60.60
3940;DHT22;1984;48.312;9.244;2022-08-03T14:18:46;30.60;60.20
3940;DHT22;1984;48.312;9.244;2022-08-03T14:21:12;30.70;61.60
3940;DHT22;1984;48.312;9.244;2022-08-03T14:23:38;30.80;61.20
3940;DHT22;1984;48.312;9.244;2022-08-03T14:26:05;30.80;59.80
3940;DHT22;1984;48.312;9.244;2022-08-03T14:28:31;30.80;60.70
3940;DHT22;1984;48.312;9.244;2022-08-03T14:30:57;30.80;60.10
3940;DHT22;1984;48.312;9.244;2022-08-03T14:33:23;30.70;61.20
3940;DHT22;1984;48.312;9.244;2022-08-03T14:35:50;30.90;60.30
3940;DHT22;1984;48.312;9.244;2022-08-03T14:38:17;30.90;60.60
3940;DHT22;1984;48.312;9.244;2022-08-03T14:40:42;30.90;59.30
3940;DHT22;1984;48.312;9.244;2022-08-03T14:43:08;30.90;60.20
3940;DHT22;1984;48.312;9.244;2022-08-03T14:45:34;30.90;60.10
3940;DHT22;1984;48.312;9.244;2022-08-03T14:47:59;30.80;60.50
3940;DHT22;1984;48.312;9.244;2022-08-03T14:50:26;30.80;60.60
3940;DHT22;1984;48.312;9.244;2022-08-03T14:52:53;30.80;59.90
3940;DHT22;1984;48.312;9.244;2022-08-03T14:55:19;30.80;59.00
3940;DHT22;1984;48.312;9.244;2022-08-03T14:57:44;30.90;59.70
3940;DHT22;1984;48.312;9.244;2022-08-03T15:00:10;31.00;59.40
3940;DHT22;1984;48.312;9.244;2022-08-03T15:02:36;31.00;60.10
3940;DHT22;1984;48.312;9.244;2022-08-03T15:05:01;31.00;59.90
3940;DHT22;1984;48.312;9.244;2022-08-03T15:07:27;31.00;60.20
3940;DHT22;1984;48.312;9.244;2022-08-03T15:09:52;31.00;61.50
3940;DHT22;1984;48.312;9.244;2022-08-03T15:12:18;31.10;58.90
3940;DHT22;1984;48.312;9.244;2022-08-03T15:14:44;31.10;60.10
3940;DHT22;1984;48.312;9.244;2022-08-03T15:17:09;31.00;59.50
3940;DHT22;1984;48.312;9.244;2022-08-03T15:19:35;30.80;59.50
3940;DHT22;1984;48.312;9.244;2022-08-03T15:22:00;30.80;61.70
3940;DHT22;1984;48.312;9.244;2022-08-03T15:24:26;30.90;60.40
3940;DHT22;1984;48.312;9.244;2022-08-03T15:26:52;31.00;61.00
3940;DHT22;1984;48.312;9.244;2022-08-03T15:29:18;31.10;61.00
3940;DHT22;1984;48.312;9.244;2022-08-03T15:31:44;31.00;60.20
3940;DHT22;1984;48.312;9.244;2022-08-03T15:34:09;30.90;61.20
3940;DHT22;1984;48.312;9.244;2022-08-03T15:36:36;30.90;60.10
3940;DHT22;1984;48.312;9.244;2022-08-03T15:39:03;30.60;60.10
3940;DHT22;1984;48.312;9.244;2022-08-03T15:41:28;30.60;60.80
3940;DHT22;1984;48.312;9.244;2022-08-03T15:43:54;30.60;61.40
3940;DHT22;1984;48.312;9.244;2022-08-03T15:46:19;30.80;59.90
3940;DHT22;1984;48.312;9.244;2022-08-03T15:48:45;30.80;60.80
3940;DHT22;1984;48.312;9.244;2022-08-03T15:51:10;30.70;60.20
3940;DHT22;1984;48.312;9.244;2022-08-03T15:53:36;30.50;60.80
3940;DHT22;1984;48.312;9.244;2022-08-03T15:56:03;30.50;60.50
3940;DHT22;1984;48.312;9.244;2022-08-03T15:58:29;30.50;60.30
3940;DHT22;1984;48.312;9.244;2022-08-03T16:00:59;30.40;60.50
3940;DHT22;1984;48.312;9.244;2022-08-03T16:03:26;30.40;60.50
3940;DHT22;1984;48.312;9.244;2022-08-03T16:05:53;30.40;63.00
3940;DHT22;1984;48.312;9.244;2022-08-03T16:08:19;30.40;62.00
3940;DHT22;1984;48.312;9.244;2022-08-03T16:10:46;30.40;62.40
3940;DHT22;1984;48.312;9.244;2022-08-03T16:13:11;30.40;62.60
3940;DHT22;1984;48.312;9.244;2022-08-03T16:15:37;30.40;62.20
3940;DHT22;1984;48.312;9.244;2022-08-03T16:18:04;30.50;61.40
3940;DHT22;1984;48.312;9.244;2022-08-03T16:20:29;30.50;59.90
3940;DHT22;1984;48.312;9.244;2022-08-03T16:22:55;30.60;60.50
3940;DHT22;1984;48.312;9.244;2022-08-03T16:25:21;30.60;61.30
3940;DHT22;1984;48.312;9.244;2022-08-03T16:27:46;30.50;60.60
3940;DHT22;1984;48.312;9.244;2022-08-03T16:30:13;30.50;61.80
3940;DHT22;1984;48.312;9.244;2022-08-03T16:32:43;30.50;60.60
3940;DHT22;1984;48.312;9.244;2022-08-03T16:35:10;30.40;61.30
3940;DHT22;1984;48.312;9.244;2022-08-03T16:37:35;30.30;61.30
3940;DHT22;1984;48.312;9.244;2022-08-03T16:40:02;30.30;61.70
3940;DHT22;1984;48.312;9.244;2022-08-03T16:42:28;30.10;63.00
3940;DHT22;1984;48.312;9.244;2022-08-03T16:44:54;30.00;63.00
3940;DHT22;1984;48.312;9.244;2022-08-03T16:47:19;29.80;62.20